Eddy, New York
Current Conditions -  °F | °C
As of 9:53 AM on Friday 28 Nov 2014 (Local Time) from KMSS Reporting Station
Overcast Overcast  
Wind Chill: 12°   Ceiling: 2100
Heat Index: 23°   Visibility: 10mi
Dew Point: 14°   Wind: 12mph
Humidity: 68%   Direction: 280°W
Pressure: 30.17"   Gusts: NA
Location:  44.5792°N, 75.1592°W
Report Text: KMSS 281453Z AUTO 28010KT 10SM BKN021 OVC029 M05/M10 A3017 RMK AO2 SNE03 SLP222 P0000 60000 T10501100 51012
Loading
Personal Weather Stations






























Interactive Weather Map New forecast layout! Learn more

10-Day Weather Forecast

Advertisements
Track Severe Weather on mobile